Air Navigation Services of Czech Republic
Airport: LKPJ Updated:  20.05.2022 20:00:32  UTC
 METAR LKPJ 20.05. 20:00 ...
METAR LKPJ 202000Z AUTO 15004KT CAVOK 20/15 Q1015=